Time;durP1;ratioP1;P1;durP2;ratioP2;P2;SDS_P1;SDS_P2;PMS_P1;PMS_P2;Temp;Humidity;BMP_temperature;BMP_pressure;BME280_temperature;BME280_humidity;BME280_pressure;Samples;Min_cycle;Max_cycle;Signal;HPM_P1;HPM_P2
2023/09/08 00:02:10;;;;;;;8.82;6.65;;;14.10;99.90;;;;;;5000686;28;20038;-85
2023/09/08 00:04:35;;;;;;;10.88;6.90;;;14.10;99.90;;;;;;5000373;28;20030;-85
2023/09/08 00:07:01;;;;;;;12.90;7.32;;;14.00;99.90;;;;;;4996820;28;20029;-85
2023/09/08 00:09:27;;;;;;;8.90;6.90;;;14.00;99.90;;;;;;4996533;28;20068;-85
2023/09/08 00:11:54;;;;;;;10.90;6.20;;;14.00;99.90;;;;;;4996697;28;20026;-85
2023/09/08 00:14:19;;;;;;;10.45;6.05;;;14.00;99.90;;;;;;5000423;28;20435;-85
2023/09/08 00:16:45;;;;;;;11.82;6.88;;;13.90;99.90;;;;;;5001251;28;20026;-85
2023/09/08 00:19:11;;;;;;;10.13;6.47;;;13.90;99.90;;;;;;5000600;28;20025;-85
2023/09/08 00:21:37;;;;;;;12.85;7.22;;;13.90;99.90;;;;;;5000671;28;20120;-85
2023/09/08 00:24:03;;;;;;;10.95;6.60;;;13.80;99.90;;;;;;5001901;28;20120;-85
2023/09/08 00:26:29;;;;;;;7.78;6.50;;;13.80;99.90;;;;;;5003397;28;20034;-85
2023/09/08 00:28:55;;;;;;;9.98;6.30;;;13.80;99.90;;;;;;5005287;28;20041;-85
2023/09/08 00:31:20;;;;;;;8.32;6.20;;;13.80;99.90;;;;;;5009556;28;20034;-85
2023/09/08 00:33:46;;;;;;;8.88;6.00;;;13.70;99.90;;;;;;5001810;28;20034;-85
2023/09/08 00:36:12;;;;;;;10.15;7.07;;;13.70;99.90;;;;;;5000947;28;20103;-85
2023/09/08 00:38:37;;;;;;;8.48;6.57;;;13.70;99.90;;;;;;5000147;28;20038;-85
2023/09/08 00:41:05;;;;;;;7.45;5.97;;;13.70;99.90;;;;;;4999417;28;20034;-85
2023/09/08 00:43:30;;;;;;;13.40;6.72;;;13.60;99.90;;;;;;5000063;28;20033;-85
2023/09/08 00:45:58;;;;;;;10.95;6.22;;;13.60;99.90;;;;;;5000780;28;21516;-84
2023/09/08 00:48:24;;;;;;;9.50;6.30;;;13.60;99.90;;;;;;5005636;28;20076;-84
2023/09/08 00:50:50;;;;;;;14.07;6.65;;;13.40;99.90;;;;;;4989926;28;20079;-85
2023/09/08 00:53:15;;;;;;;9.48;6.53;;;13.40;99.90;;;;;;5000035;28;20034;-84
2023/09/08 00:55:41;;;;;;;10.18;6.82;;;13.40;99.90;;;;;;5002037;28;20040;-84
2023/09/08 00:58:07;;;;;;;10.63;7.20;;;13.40;99.90;;;;;;5002320;28;20037;-84
2023/09/08 01:00:33;;;;;;;9.80;7.30;;;13.30;99.90;;;;;;4999339;28;20492;-85
2023/09/08 01:02:59;;;;;;;8.98;6.93;;;13.30;99.90;;;;;;5000262;28;20022;-84
2023/09/08 01:05:25;;;;;;;10.82;6.97;;;13.30;99.90;;;;;;4999141;28;20073;-84
2023/09/08 01:07:52;;;;;;;10.68;7.28;;;13.30;99.90;;;;;;4999031;28;20124;-85
2023/09/08 01:10:17;;;;;;;9.27;6.82;;;13.30;99.90;;;;;;4998951;28;20033;-84
2023/09/08 01:12:43;;;;;;;10.50;6.40;;;13.30;99.90;;;;;;4982249;28;20088;-85
2023/09/08 01:15:09;;;;;;;11.18;6.70;;;13.20;99.90;;;;;;4998852;28;20044;-85
2023/09/08 01:17:35;;;;;;;10.52;7.35;;;13.20;99.90;;;;;;4982482;28;20524;-84
2023/09/08 01:20:21;;;;;;;11.80;7.60;;;13.20;99.90;;;;;;4997649;28;20026;-84
2023/09/08 01:23:21;;;;;;;9.13;7.22;;;13.20;99.90;;;;;;5000462;28;20105;-85
2023/09/08 01:25:57;;;;;;;8.05;6.43;;;13.20;99.90;;;;;;4999179;28;20045;-85
2023/09/08 01:28:23;;;;;;;9.98;6.50;;;13.20;99.90;;;;;;4999849;28;20038;-84
2023/09/08 01:30:50;;;;;;;9.68;6.68;;;13.20;99.90;;;;;;4999175;28;20027;-84
2023/09/08 01:33:16;;;;;;;10.60;6.78;;;13.20;99.90;;;;;;5000352;28;20030;-84
2023/09/08 01:35:42;;;;;;;11.88;6.70;;;13.10;99.90;;;;;;4986580;28;20447;-84
2023/09/08 01:38:08;;;;;;;8.32;6.50;;;13.10;99.90;;;;;;5000533;28;20122;-83
2023/09/08 01:40:34;;;;;;;8.27;6.32;;;13.10;99.90;;;;;;4999745;28;20032;-85
2023/09/08 01:43:00;;;;;;;11.23;6.45;;;13.00;99.90;;;;;;5005056;28;20034;-84
2023/09/08 01:45:26;;;;;;;9.13;6.97;;;13.00;99.90;;;;;;5009338;28;20034;-83
2023/09/08 01:47:52;;;;;;;10.05;5.88;;;13.00;99.90;;;;;;5000063;28;20033;-84
2023/09/08 01:50:21;;;;;;;9.48;6.07;;;13.00;99.90;;;;;;4996509;28;20052;-84
2023/09/08 01:52:47;;;;;;;9.48;6.25;;;13.00;99.90;;;;;;5019197;28;20085;-84
2023/09/08 01:55:12;;;;;;;9.10;6.20;;;12.90;99.90;;;;;;5006357;28;21064;-84
2023/09/08 01:57:38;;;;;;;11.27;7.45;;;12.90;99.90;;;;;;4999450;28;20018;-84
2023/09/08 02:00:05;;;;;;;10.93;7.00;;;12.90;99.90;;;;;;4998457;28;20113;-85
2023/09/08 02:02:31;;;;;;;12.40;7.50;;;12.90;99.90;;;;;;4999083;28;20096;-85
2023/09/08 02:04:56;;;;;;;10.63;7.30;;;12.80;99.90;;;;;;4980056;28;20038;-84
2023/09/08 02:07:22;;;;;;;11.60;7.30;;;12.80;99.90;;;;;;4998835;28;20105;-85
2023/09/08 02:09:48;;;;;;;11.27;7.03;;;12.80;99.90;;;;;;4996450;28;20099;-84
2023/09/08 02:12:13;;;;;;;11.50;7.97;;;12.80;99.90;;;;;;4999243;28;20045;-85
2023/09/08 02:14:39;;;;;;;13.38;7.78;;;12.80;99.90;;;;;;4998918;28;20022;-85
2023/09/08 02:17:06;;;;;;;11.50;7.30;;;12.80;99.90;;;;;;4997416;28;20021;-85
2023/09/08 02:19:31;;;;;;;11.40;7.18;;;12.80;99.90;;;;;;4995937;28;20409;-84
2023/09/08 02:21:57;;;;;;;11.05;6.80;;;12.70;99.90;;;;;;4997087;28;20102;-84
2023/09/08 02:24:22;;;;;;;11.43;7.60;;;12.70;99.90;;;;;;4996867;28;20049;-83
2023/09/08 02:26:48;;;;;;;11.63;7.05;;;12.70;99.90;;;;;;4996399;28;20105;-84
2023/09/08 02:29:13;;;;;;;11.30;7.35;;;12.70;99.90;;;;;;4995544;28;20548;-84
2023/09/08 02:31:39;;;;;;;8.60;6.63;;;12.70;99.90;;;;;;4996738;28;20555;-85
2023/09/08 02:34:06;;;;;;;8.65;6.78;;;12.70;99.90;;;;;;4980149;28;20026;-84
2023/09/08 02:36:31;;;;;;;10.63;7.13;;;12.60;99.90;;;;;;4979487;28;21765;-85
2023/09/08 02:38:57;;;;;;;9.80;7.45;;;12.60;99.90;;;;;;4997358;28;20173;-84
2023/09/08 02:41:23;;;;;;;13.27;7.90;;;12.60;99.90;;;;;;4998362;28;20040;-85
2023/09/08 02:43:49;;;;;;;10.32;7.28;;;12.60;99.90;;;;;;4998739;28;20073;-86
2023/09/08 02:46:14;;;;;;;10.48;7.55;;;12.50;99.90;;;;;;4997547;28;20061;-84
2023/09/08 02:48:40;;;;;;;8.70;7.13;;;12.50;99.90;;;;;;4997569;28;20040;-84
2023/09/08 02:51:06;;;;;;;10.85;7.10;;;12.50;99.90;;;;;;4978952;28;20057;-85
2023/09/08 02:53:33;;;;;;;11.02;6.75;;;12.50;99.90;;;;;;4998466;28;20037;-85
2023/09/08 02:55:59;;;;;;;9.23;6.18;;;12.40;99.90;;;;;;4979137;28;20053;-85
2023/09/08 02:58:26;;;;;;;11.23;6.95;;;12.50;99.90;;;;;;4997167;28;20065;-86
2023/09/08 03:00:52;;;;;;;8.35;6.70;;;12.50;99.90;;;;;;4979133;28;20034;-84
2023/09/08 03:03:20;;;;;;;9.48;6.80;;;12.50;99.90;;;;;;4980436;28;20506;-85
2023/09/08 03:05:46;;;;;;;12.38;7.05;;;12.40;99.90;;;;;;4998834;28;20030;-85
2023/09/08 03:08:12;;;;;;;10.68;7.10;;;12.40;99.90;;;;;;5001700;28;20022;-84
2023/09/08 03:10:37;;;;;;;12.32;7.75;;;12.40;99.90;;;;;;5010612;28;20093;-84
2023/09/08 03:13:04;;;;;;;8.95;7.32;;;12.40;99.90;;;;;;5012489;28;20034;-84
2023/09/08 03:15:29;;;;;;;10.10;7.63;;;12.30;99.90;;;;;;5010372;28;20030;-84
2023/09/08 03:17:55;;;;;;;10.25;6.68;;;12.30;99.90;;;;;;5007343;28;20018;-84
2023/09/08 03:20:21;;;;;;;9.63;7.25;;;12.30;99.90;;;;;;5005203;28;20141;-86
2023/09/08 03:22:47;;;;;;;9.50;6.93;;;12.30;99.90;;;;;;4989267;28;20491;-86
2023/09/08 03:25:16;;;;;;;12.80;7.25;;;12.30;99.90;;;;;;5005161;28;20049;-87
2023/09/08 03:27:41;;;;;;;10.68;7.25;;;12.30;99.90;;;;;;5005107;28;20033;-84
2023/09/08 03:30:07;;;;;;;10.35;6.78;;;12.20;99.90;;;;;;4997163;28;20022;-85
2023/09/08 03:32:33;;;;;;;9.27;6.50;;;12.20;99.90;;;;;;4996910;28;20030;-84
2023/09/08 03:34:59;;;;;;;12.48;6.90;;;12.20;99.90;;;;;;4995472;28;20026;-85
2023/09/08 03:37:26;;;;;;;12.68;7.00;;;12.10;99.90;;;;;;4997194;28;20073;-85
2023/09/08 03:39:52;;;;;;;11.50;7.63;;;12.20;99.90;;;;;;4994512;28;20527;-84
2023/09/08 03:42:17;;;;;;;9.88;7.20;;;12.20;99.90;;;;;;4996518;28;20111;-83
2023/09/08 03:44:43;;;;;;;10.13;6.90;;;12.10;99.90;;;;;;4996573;28;20018;-85
2023/09/08 03:47:08;;;;;;;9.38;6.47;;;12.10;99.90;;;;;;4995673;28;20494;-84
2023/09/08 03:49:34;;;;;;;10.38;7.03;;;12.10;99.90;;;;;;4996396;28;20896;-84
2023/09/08 03:51:59;;;;;;;8.38;6.65;;;12.00;99.90;;;;;;4996154;28;20028;-84
2023/09/08 03:54:25;;;;;;;10.38;6.72;;;12.00;99.90;;;;;;4979219;28;20037;-85
2023/09/08 03:56:50;;;;;;;9.63;6.68;;;12.00;99.90;;;;;;4996972;28;20030;-84
2023/09/08 03:59:16;;;;;;;10.18;7.40;;;11.90;99.90;;;;;;4996231;28;20029;-85
2023/09/08 04:01:41;;;;;;;9.65;7.18;;;11.90;99.90;;;;;;4995484;28;20022;-84
2023/09/08 04:04:08;;;;;;;11.30;6.65;;;11.80;99.90;;;;;;4996619;28;20033;-83
2023/09/08 04:06:33;;;;;;;9.65;6.72;;;11.80;99.90;;;;;;4998793;28;20511;-83
2023/09/08 04:08:59;;;;;;;12.63;7.32;;;11.80;99.90;;;;;;4997416;28;20034;-85
2023/09/08 04:11:25;;;;;;;10.13;6.90;;;11.70;99.90;;;;;;4995485;28;20519;-84
2023/09/08 04:13:51;;;;;;;10.10;7.00;;;11.70;99.90;;;;;;4995879;28;20113;-83
2023/09/08 04:16:17;;;;;;;11.27;6.78;;;11.70;99.90;;;;;;4994467;28;20038;-85
2023/09/08 04:18:42;;;;;;;9.55;6.97;;;11.70;99.90;;;;;;4995808;28;20030;-84
2023/09/08 04:21:08;;;;;;;9.05;7.30;;;11.70;99.90;;;;;;4994153;28;20350;-84
2023/09/08 04:23:33;;;;;;;11.73;6.97;;;11.70;99.90;;;;;;4995634;28;20040;-85
2023/09/08 04:25:59;;;;;;;9.02;6.95;;;11.70;99.90;;;;;;4996080;28;20037;-84
2023/09/08 04:28:24;;;;;;;9.27;7.47;;;11.70;99.90;;;;;;4994405;28;20030;-84
2023/09/08 04:30:50;;;;;;;9.55;7.30;;;11.70;99.90;;;;;;4979358;28;20050;-84
2023/09/08 04:33:15;;;;;;;10.25;7.07;;;11.70;99.90;;;;;;5009948;28;20041;-84
2023/09/08 04:35:41;;;;;;;11.00;7.32;;;11.70;99.90;;;;;;5011966;28;20121;-84
2023/09/08 04:38:07;;;;;;;9.40;7.22;;;11.70;99.90;;;;;;5007186;28;20030;-84
2023/09/08 04:40:33;;;;;;;10.18;6.78;;;11.70;99.90;;;;;;5002124;28;20030;-84
2023/09/08 04:42:58;;;;;;;9.45;6.75;;;11.70;99.90;;;;;;4997373;28;20087;-85
2023/09/08 04:45:24;;;;;;;11.77;8.20;;;11.70;99.90;;;;;;4995962;28;20062;-84
2023/09/08 04:47:50;;;;;;;11.27;8.27;;;11.70;99.90;;;;;;4977892;28;20041;-84
2023/09/08 04:50:16;;;;;;;11.23;8.52;;;11.70;99.90;;;;;;4997758;28;20484;-84
2023/09/08 04:52:41;;;;;;;12.23;7.80;;;11.70;99.90;;;;;;5001177;28;20037;-84
2023/09/08 04:55:07;;;;;;;12.63;8.30;;;11.80;99.90;;;;;;5000989;28;20063;-84
2023/09/08 04:57:33;;;;;;;11.25;8.30;;;11.80;99.90;;;;;;4996298;28;20035;-84
2023/09/08 04:59:58;;;;;;;11.82;8.02;;;11.80;99.90;;;;;;5001335;28;20083;-83
2023/09/08 05:02:24;;;;;;;11.57;8.52;;;11.80;99.90;;;;;;4981027;28;20041;-85
2023/09/08 05:04:49;;;;;;;13.38;8.50;;;11.80;99.90;;;;;;4998704;28;20037;-84
2023/09/08 05:07:15;;;;;;;11.00;7.82;;;11.80;99.90;;;;;;4999472;28;20022;-84
2023/09/08 05:09:41;;;;;;;11.15;8.27;;;11.90;99.90;;;;;;4996766;28;21348;-85
2023/09/08 05:12:07;;;;;;;11.77;7.50;;;11.90;99.90;;;;;;4998265;28;20364;-84
2023/09/08 05:14:33;;;;;;;12.80;7.60;;;11.90;99.90;;;;;;4998500;28;20036;-85
2023/09/08 05:16:59;;;;;;;10.45;7.85;;;11.90;99.90;;;;;;4999169;28;20030;-84
2023/09/08 05:19:24;;;;;;;10.50;7.40;;;12.00;99.90;;;;;;4997275;28;20040;-84
2023/09/08 05:21:51;;;;;;;11.18;8.30;;;12.00;99.90;;;;;;4980928;28;20172;-85
2023/09/08 05:24:17;;;;;;;11.93;8.95;;;12.00;99.90;;;;;;4998071;28;20076;-84
2023/09/08 05:26:43;;;;;;;13.95;8.93;;;12.10;99.90;;;;;;4996641;28;20030;-85
2023/09/08 05:29:08;;;;;;;12.98;8.98;;;12.10;99.90;;;;;;4997434;28;20014;-84
2023/09/08 05:31:34;;;;;;;11.30;8.23;;;12.20;99.90;;;;;;4999770;28;21210;-85
2023/09/08 05:33:59;;;;;;;12.35;8.20;;;12.20;99.90;;;;;;4997390;28;20038;-85
2023/09/08 05:36:25;;;;;;;12.30;8.15;;;12.30;99.90;;;;;;4997858;28;20052;-84
2023/09/08 05:38:51;;;;;;;10.55;8.18;;;12.30;99.90;;;;;;4997057;28;20108;-84
2023/09/08 05:41:17;;;;;;;10.00;7.53;;;12.40;99.90;;;;;;4994980;28;21529;-85
2023/09/08 05:43:42;;;;;;;13.35;8.40;;;12.50;99.90;;;;;;4998242;28;20117;-84
2023/09/08 05:46:08;;;;;;;11.05;7.55;;;12.50;99.90;;;;;;4997315;28;20113;-85
2023/09/08 05:48:33;;;;;;;10.90;7.57;;;12.60;99.90;;;;;;4998687;28;20108;-85
2023/09/08 05:51:02;;;;;;;13.00;8.00;;;12.60;99.90;;;;;;4994255;28;20018;-85
2023/09/08 05:53:28;;;;;;;11.05;7.72;;;12.70;99.90;;;;;;4998229;28;20022;-85
2023/09/08 05:55:53;;;;;;;10.82;8.13;;;12.80;99.90;;;;;;4998324;28;20033;-84
2023/09/08 05:58:19;;;;;;;9.85;7.32;;;12.90;99.90;;;;;;4997869;28;20030;-85
2023/09/08 06:00:44;;;;;;;12.07;7.88;;;12.90;99.90;;;;;;4995690;28;20791;-84
2023/09/08 06:03:10;;;;;;;11.55;7.47;;;13.00;99.90;;;;;;4996097;28;20410;-84
2023/09/08 06:05:35;;;;;;;11.48;7.18;;;13.10;99.90;;;;;;4996102;28;20116;-84
2023/09/08 06:08:01;;;;;;;11.32;8.43;;;13.20;99.90;;;;;;4995919;28;20057;-84
2023/09/08 06:10:27;;;;;;;9.55;7.82;;;13.30;99.90;;;;;;4993128;28;20089;-84
2023/09/08 06:12:52;;;;;;;14.05;8.27;;;13.40;99.90;;;;;;4978379;28;20048;-85
2023/09/08 06:15:18;;;;;;;13.07;8.88;;;13.50;99.90;;;;;;4996830;28;20030;-85
2023/09/08 06:17:43;;;;;;;11.18;9.00;;;13.60;99.90;;;;;;4995751;28;20069;-85
2023/09/08 06:20:10;;;;;;;9.93;7.95;;;13.70;99.90;;;;;;4995854;28;20502;-85
2023/09/08 06:22:35;;;;;;;10.10;8.55;;;13.80;99.90;;;;;;4995878;28;20822;-84
2023/09/08 06:25:01;;;;;;;11.38;8.80;;;13.80;99.90;;;;;;4995343;28;20030;-84
2023/09/08 06:27:27;;;;;;;9.73;8.50;;;14.00;99.90;;;;;;4994813;28;20071;-85
2023/09/08 06:29:52;;;;;;;10.70;8.68;;;14.10;99.90;;;;;;4995802;28;20037;-84
2023/09/08 06:32:18;;;;;;;10.25;9.02;;;14.20;99.90;;;;;;4995954;28;20049;-85
2023/09/08 06:34:43;;;;;;;11.30;8.45;;;14.30;99.90;;;;;;4996264;28;20026;-85
2023/09/08 06:37:10;;;;;;;24.48;10.00;;;14.40;99.90;;;;;;4995651;28;20492;-85
2023/09/08 06:39:36;;;;;;;10.65;9.13;;;14.50;99.90;;;;;;4975963;28;20773;-84
2023/09/08 06:42:03;;;;;;;11.48;8.82;;;14.50;99.90;;;;;;4993426;28;20042;-85
2023/09/08 06:44:28;;;;;;;15.05;9.45;;;14.60;99.90;;;;;;4994592;28;20126;-85
2023/09/08 06:46:54;;;;;;;13.70;9.77;;;14.60;99.90;;;;;;4993617;28;20026;-84
2023/09/08 06:49:19;;;;;;;12.65;8.90;;;14.70;99.90;;;;;;4996207;28;20109;-84
2023/09/08 06:51:47;;;;;;;13.13;9.18;;;14.80;99.90;;;;;;4996313;28;21449;-85
2023/09/08 06:54:12;;;;;;;14.98;9.10;;;14.90;99.90;;;;;;4995652;28;20131;-85
2023/09/08 06:56:38;;;;;;;13.73;9.85;;;15.00;99.90;;;;;;4996300;28;20025;-85
2023/09/08 06:59:04;;;;;;;13.43;10.15;;;15.10;99.90;;;;;;4995758;28;20030;-84
2023/09/08 07:01:29;;;;;;;12.60;10.15;;;15.10;99.90;;;;;;4994461;28;20038;-85
2023/09/08 07:03:55;;;;;;;15.77;10.10;;;15.20;99.90;;;;;;4994631;28;20022;-85
2023/09/08 07:06:22;;;;;;;14.55;10.52;;;15.30;99.90;;;;;;4994400;28;20030;-85
2023/09/08 07:08:50;;;;;;;11.73;9.20;;;15.40;99.90;;;;;;4995244;28;20032;-85
2023/09/08 07:11:15;;;;;;;14.40;10.63;;;15.50;99.90;;;;;;4993581;28;20481;-85
2023/09/08 07:13:41;;;;;;;14.18;10.88;;;15.60;99.90;;;;;;4977832;28;20033;-85
2023/09/08 07:16:07;;;;;;;14.25;10.32;;;15.70;99.90;;;;;;4993867;28;20637;-86
2023/09/08 07:18:35;;;;;;;16.27;11.57;;;15.80;99.90;;;;;;4994575;28;20049;-84
2023/09/08 07:21:02;;;;;;;12.75;11.38;;;15.90;99.90;;;;;;4997396;28;20092;-85
2023/09/08 07:23:27;;;;;;;15.98;12.63;;;16.00;99.90;;;;;;4998734;28;20059;-85
2023/09/08 07:25:53;;;;;;;15.68;11.57;;;16.10;99.90;;;;;;4999808;28;20503;-85
2023/09/08 07:28:19;;;;;;;16.38;12.52;;;16.20;99.90;;;;;;4999007;28;20034;-85
2023/09/08 07:30:44;;;;;;;16.15;11.88;;;16.30;99.90;;;;;;4994748;28;20114;-84
2023/09/08 07:33:10;;;;;;;13.65;11.52;;;16.30;99.90;;;;;;4996931;28;20060;-85
2023/09/08 07:35:37;;;;;;;16.98;10.95;;;16.40;99.90;;;;;;4996104;28;20022;-84
2023/09/08 07:38:03;;;;;;;15.63;11.35;;;16.40;99.90;;;;;;4996452;28;20080;-85
2023/09/08 07:40:28;;;;;;;14.13;10.60;;;16.50;99.90;;;;;;4996047;28;20141;-85
2023/09/08 07:42:54;;;;;;;14.48;11.43;;;16.60;99.90;;;;;;4996779;28;20048;-85
2023/09/08 07:45:19;;;;;;;16.65;11.80;;;16.70;99.90;;;;;;4996248;28;20033;-85
2023/09/08 07:47:45;;;;;;;14.48;11.25;;;16.80;99.90;;;;;;4996569;28;20030;-85
2023/09/08 07:50:21;;;;;;;14.18;11.05;;;16.80;99.90;;;;;;4994957;28;20050;-84
2023/09/08 07:52:48;;;;;;;17.20;11.43;;;16.90;99.90;;;;;;4998241;28;20083;-86
2023/09/08 07:55:14;;;;;;;13.10;10.85;;;17.10;99.90;;;;;;4997799;28;20439;-85
2023/09/08 07:57:42;;;;;;;16.20;10.70;;;17.10;99.90;;;;;;4999273;28;20022;-85
2023/09/08 08:00:10;;;;;;;13.85;11.57;;;17.20;99.90;;;;;;4997818;28;21191;-85
2023/09/08 08:02:36;;;;;;;15.73;11.65;;;17.30;99.90;;;;;;4998118;28;20045;-86
2023/09/08 08:05:03;;;;;;;17.70;12.60;;;17.40;99.90;;;;;;4995769;28;20033;-84
2023/09/08 08:07:30;;;;;;;13.70;11.05;;;17.50;99.90;;;;;;4994690;28;20036;-86
2023/09/08 08:09:55;;;;;;;15.30;11.52;;;17.60;99.90;;;;;;4994502;28;20236;-85
2023/09/08 08:12:21;;;;;;;16.13;11.88;;;17.70;99.90;;;;;;4994852;28;20031;-85
2023/09/08 08:14:46;;;;;;;12.32;10.40;;;17.80;99.90;;;;;;4975942;28;21345;-85
2023/09/08 08:17:12;;;;;;;15.68;11.82;;;17.90;99.90;;;;;;4993486;28;20030;-84
2023/09/08 08:19:38;;;;;;;14.02;11.27;;;18.00;99.90;;;;;;4991895;28;20081;-85
2023/09/08 08:22:04;;;;;;;15.02;10.68;;;18.20;99.90;;;;;;4992388;28;20033;-84
2023/09/08 08:24:29;;;;;;;15.90;11.35;;;18.20;99.90;;;;;;4995831;28;20017;-85
2023/09/08 08:26:55;;;;;;;14.30;10.90;;;18.30;99.90;;;;;;4999344;28;20026;-86
2023/09/08 08:29:20;;;;;;;15.20;10.57;;;18.40;99.90;;;;;;5003692;28;20024;-85
2023/09/08 08:31:46;;;;;;;16.73;10.52;;;18.50;99.90;;;;;;5003248;28;20018;-86
2023/09/08 08:34:11;;;;;;;14.02;10.45;;;18.50;99.90;;;;;;4986408;28;20073;-85
2023/09/08 08:36:37;;;;;;;14.25;10.27;;;18.60;99.90;;;;;;4999713;28;20795;-85
2023/09/08 08:39:05;;;;;;;14.70;10.77;;;18.80;99.90;;;;;;4998391;28;20510;-85
2023/09/08 08:41:31;;;;;;;14.52;10.82;;;18.90;99.90;;;;;;4997539;28;20034;-85
2023/09/08 08:43:57;;;;;;;12.98;9.65;;;19.00;99.90;;;;;;4999430;28;20067;-85
2023/09/08 08:46:23;;;;;;;15.35;11.02;;;19.00;99.90;;;;;;5000313;28;20026;-85
2023/09/08 08:48:54;;;;;;;13.85;10.43;;;19.20;99.90;;;;;;4998433;28;20037;-85
2023/09/08 08:51:22;;;;;;;17.92;11.40;;;19.40;99.90;;;;;;5000160;28;20025;-86
2023/09/08 08:53:48;;;;;;;14.55;9.85;;;19.50;99.90;;;;;;5000057;28;20049;-86
2023/09/08 08:56:13;;;;;;;15.18;10.50;;;19.60;99.90;;;;;;4998561;28;20022;-86
2023/09/08 08:58:40;;;;;;;15.73;10.35;;;19.70;99.90;;;;;;4998319;28;20026;-84
2023/09/08 09:01:09;;;;;;;13.52;9.52;;;19.90;99.90;;;;;;4980009;28;20486;-86
2023/09/08 09:03:37;;;;;;;15.52;9.82;;;20.10;99.90;;;;;;4998284;28;20072;-85
2023/09/08 09:06:03;;;;;;;13.93;9.57;;;20.30;99.90;;;;;;4999716;28;20030;-86
2023/09/08 09:08:29;;;;;;;15.88;10.38;;;20.50;99.90;;;;;;4996674;28;20120;-85
2023/09/08 09:10:55;;;;;;;13.55;10.18;;;20.80;99.90;;;;;;4997581;28;20037;-85
2023/09/08 09:13:21;;;;;;;12.35;9.60;;;21.00;99.90;;;;;;5000578;28;20120;-85
2023/09/08 09:15:49;;;;;;;13.23;8.90;;;21.20;99.90;;;;;;5001039;28;20036;-85
2023/09/08 09:18:15;;;;;;;11.05;9.20;;;21.50;99.90;;;;;;4997773;28;20026;-86
2023/09/08 09:20:52;;;;;;;15.00;9.95;;;21.90;99.90;;;;;;4980434;28;20053;-86
2023/09/08 09:23:27;;;;;;;12.85;9.00;;;22.00;99.90;;;;;;4999385;28;20022;-86
2023/09/08 09:25:53;;;;;;;12.25;8.43;;;22.10;99.90;;;;;;4997703;28;20022;-85
2023/09/08 09:28:19;;;;;;;9.68;8.50;;;22.30;99.90;;;;;;4997923;28;20033;-86
2023/09/08 09:30:49;;;;;;;11.50;8.75;;;22.50;99.90;;;;;;4979498;28;20041;-85
2023/09/08 09:33:15;;;;;;;10.68;8.75;;;22.70;99.90;;;;;;4981864;28;20850;-86
2023/09/08 09:35:52;;;;;;;10.48;8.35;;;22.90;99.90;;;;;;4999833;28;21042;-86
2023/09/08 09:38:19;;;;;;;13.70;8.45;;;23.20;99.90;;;;;;4998298;28;20065;-86
2023/09/08 09:40:46;;;;;;;15.00;9.32;;;23.30;99.90;;;;;;4996643;28;20041;-85
2023/09/08 09:43:12;;;;;;;12.98;8.50;;;23.70;99.90;;;;;;4998167;28;20603;-86
2023/09/08 09:45:39;;;;;;;11.27;8.10;;;23.80;99.90;;;;;;4998469;28;20021;-86
2023/09/08 09:48:07;;;;;;;12.60;8.52;;;23.80;99.90;;;;;;4999376;28;20177;-86
2023/09/08 09:50:38;;;;;;;9.77;7.88;;;24.00;99.90;;;;;;4998896;28;21041;-85
2023/09/08 09:53:15;;;;;;;9.52;8.20;;;24.10;99.90;;;;;;4999254;28;20049;-86
2023/09/08 09:55:42;;;;;;;9.20;7.82;;;24.20;99.90;;;;;;4998826;28;20055;-85
2023/09/08 09:58:10;;;;;;;9.73;7.18;;;24.50;99.90;;;;;;4999773;28;20057;-86
2023/09/08 10:00:37;;;;;;;10.27;6.95;;;24.60;99.90;;;;;;4996503;28;20033;-86
2023/09/08 10:03:04;;;;;;;11.55;7.65;;;24.80;99.90;;;;;;4999927;28;20026;-86
2023/09/08 10:05:29;;;;;;;9.00;6.50;;;24.90;99.90;;;;;;5005686;28;21870;-86
2023/09/08 10:07:55;;;;;;;10.38;6.80;;;24.90;99.90;;;;;;5004902;28;20037;-86
2023/09/08 10:10:22;;;;;;;12.68;7.25;;;25.20;99.90;;;;;;4996559;28;20037;-86
2023/09/08 10:12:53;;;;;;;9.18;7.10;;;25.30;99.90;;;;;;4996768;28;20033;-86
2023/09/08 10:15:23;;;;;;;11.82;6.70;;;25.60;99.90;;;;;;4998052;28;20044;-87
2023/09/08 10:17:57;;;;;;;9.30;6.70;;;25.60;99.90;;;;;;4996917;28;20030;-85
2023/09/08 10:20:24;;;;;;;16.87;7.43;;;25.60;99.90;;;;;;4977999;28;20117;-85
2023/09/08 10:22:56;;;;;;;9.82;6.68;;;25.70;99.90;;;;;;4999180;28;20038;-86
2023/09/08 10:25:26;;;;;;;11.80;7.43;;;25.80;99.90;;;;;;4980734;28;20026;-86
2023/09/08 10:27:54;;;;;;;9.40;6.55;;;26.00;99.90;;;;;;4998708;28;20026;-86
2023/09/08 10:30:21;;;;;;;12.27;7.00;;;26.10;99.90;;;;;;4997987;28;20025;-86
2023/09/08 10:32:49;;;;;;;9.27;6.53;;;26.10;99.90;;;;;;4997373;28;20026;-86
2023/09/08 10:35:17;;;;;;;12.32;6.18;;;26.20;99.90;;;;;;4997981;28;20034;-86
2023/09/08 10:37:43;;;;;;;7.65;5.70;;;26.30;99.90;;;;;;4977970;28;20026;-86
2023/09/08 10:40:33;;;;;;;8.85;6.00;;;26.50;99.90;;;;;;4994854;28;20452;-86
2023/09/08 10:43:09;;;;;;;7.18;5.53;;;26.60;99.90;;;;;;4995807;28;20034;-86
2023/09/08 10:45:35;;;;;;;8.40;5.85;;;26.80;99.90;;;;;;4997920;28;20026;-86
2023/09/08 10:48:01;;;;;;;7.40;5.03;;;26.80;99.90;;;;;;4996390;28;20109;-85
2023/09/08 10:50:34;;;;;;;9.38;5.53;;;26.80;99.90;;;;;;4976986;28;20033;-87
2023/09/08 10:53:13;;;;;;;6.78;4.93;;;27.00;99.90;;;;;;4996090;28;20049;-86
2023/09/08 10:55:53;;;;;;;9.57;6.63;;;27.10;99.90;;;;;;4995820;28;20038;-86
2023/09/08 10:58:38;;;;;;;7.60;5.80;;;27.10;99.90;;;;;;4977931;28;20143;-86
2023/09/08 11:01:04;;;;;;;8.18;5.03;;;27.30;99.90;;;;;;4995309;28;20087;-86
2023/09/08 11:03:43;;;;;;;9.25;5.97;;;27.30;99.90;;;;;;4996420;28;20476;-86
2023/09/08 11:06:10;;;;;;;8.32;5.50;;;27.30;99.90;;;;;;5000958;28;20045;-86
2023/09/08 11:08:40;;;;;;;8.23;4.90;;;27.40;99.90;;;;;;5002679;28;20051;-86
2023/09/08 11:11:06;;;;;;;7.88;6.22;;;27.60;99.90;;;;;;4999775;28;20060;-86
2023/09/08 11:13:32;;;;;;;9.65;5.65;;;27.60;99.90;;;;;;4995352;28;20712;-86
2023/09/08 11:15:58;;;;;;;8.15;5.07;;;27.80;99.90;;;;;;4995033;28;20032;-86
2023/09/08 11:18:30;;;;;;;7.82;5.80;;;27.80;99.90;;;;;;4992889;28;20835;-86
2023/09/08 11:20:57;;;;;;;8.00;5.60;;;27.90;99.90;;;;;;4997552;28;20030;-86
2023/09/08 11:23:23;;;;;;;10.40;5.93;;;27.80;99.90;;;;;;4997977;28;20116;-86
2023/09/08 11:25:51;;;;;;;7.75;5.05;;;27.70;99.90;;;;;;4981062;28;20024;-86
2023/09/08 11:28:18;;;;;;;7.35;5.30;;;27.80;99.90;;;;;;4997898;28;20029;-86
2023/09/08 11:30:46;;;;;;;7.60;4.78;;;28.00;99.90;;;;;;4997577;28;20029;-86
2023/09/08 11:33:16;;;;;;;11.32;5.22;;;28.00;99.90;;;;;;4993625;28;20053;-86
2023/09/08 11:35:44;;;;;;;7.88;5.50;;;28.00;99.90;;;;;;4978113;28;20389;-86
2023/09/08 11:38:11;;;;;;;11.07;5.90;;;28.10;99.90;;;;;;4998371;28;20128;-85
2023/09/08 11:40:37;;;;;;;8.25;5.90;;;28.30;99.90;;;;;;4996586;28;20555;-86
2023/09/08 11:43:04;;;;;;;6.45;5.28;;;28.30;99.90;;;;;;4996668;28;20064;-86
2023/09/08 11:45:33;;;;;;;9.27;5.10;;;28.60;99.90;;;;;;4996591;28;21502;-86
2023/09/08 11:47:59;;;;;;;7.07;5.05;;;29.00;99.90;;;;;;4995698;28;20044;-86
2023/09/08 11:50:25;;;;;;;8.10;5.25;;;29.20;99.90;;;;;;4996513;28;20074;-86
2023/09/08 11:52:52;;;;;;;6.93;5.22;;;29.00;99.90;;;;;;4996542;28;20184;-86
2023/09/08 11:55:19;;;;;;;8.27;5.18;;;28.90;99.90;;;;;;4995071;28;20034;-85
2023/09/08 11:57:48;;;;;;;8.88;4.68;;;29.00;99.90;;;;;;4994987;28;20018;-86
2023/09/08 12:00:17;;;;;;;6.85;4.90;;;29.10;99.90;;;;;;4978139;28;20022;-86
2023/09/08 12:02:44;;;;;;;7.63;4.68;;;29.00;99.90;;;;;;4995314;28;20072;-86
2023/09/08 12:05:21;;;;;;;8.63;4.75;;;29.20;99.90;;;;;;4996655;28;20033;-86
2023/09/08 12:07:47;;;;;;;5.45;4.53;;;29.30;99.90;;;;;;4996117;28;20034;-86
2023/09/08 12:10:13;;;;;;;8.38;4.93;;;29.20;99.90;;;;;;4994351;28;20481;-86
2023/09/08 12:12:46;;;;;;;7.68;4.68;;;29.20;99.90;;;;;;4997359;28;20572;-86
2023/09/08 12:15:29;;;;;;;8.57;4.72;;;29.30;99.90;;;;;;4993946;28;20039;-86
2023/09/08 12:17:54;;;;;;;6.05;5.10;;;29.40;99.90;;;;;;4998098;28;20033;-86
2023/09/08 12:20:20;;;;;;;7.80;5.10;;;29.50;99.90;;;;;;5001818;28;20399;-85
2023/09/08 12:22:50;;;;;;;8.93;4.72;;;29.40;99.90;;;;;;5004752;28;20152;-85
2023/09/08 12:25:16;;;;;;;8.55;5.10;;;29.40;99.90;;;;;;4996888;28;20071;-86
2023/09/08 12:27:42;;;;;;;6.22;4.60;;;29.30;99.90;;;;;;4994998;28;20038;-86
2023/09/08 12:30:09;;;;;;;7.32;5.15;;;29.30;99.90;;;;;;4993784;28;20476;-86
2023/09/08 12:32:36;;;;;;;5.35;4.78;;;29.50;99.90;;;;;;4993849;28;20613;-86
2023/09/08 12:35:03;;;;;;;6.97;5.20;;;29.50;99.90;;;;;;4993361;28;20050;-85
2023/09/08 12:37:32;;;;;;;6.40;4.68;;;29.80;99.90;;;;;;4992226;28;20895;-87